Aviation Digital Data Service (ADDS)

Output produced by TAFs form (2117 UTC 20 November 2017)
found at http://www.aviationweather.gov/adds/tafs/
 
KSBY 201720Z 2018/2118 27010KT P6SM SKC 
     FM202300 20003KT P6SM SKC 
     FM211300 21010KT P6SM BKN250